Time;durP1;ratioP1;P1;durP2;ratioP2;P2;SDS_P1;SDS_P2;PMS_P1;PMS_P2;Temp;Humidity;BMP_temperature;BMP_pressure;BME280_temperature;BME280_humidity;BME280_pressure;Samples;Min_cycle;Max_cycle;Signal;HPM_P1;HPM_P2
2021/01/04 00:01:23;;;;;;;0.80;0.80;;;12.30;79.00;;;;;;5005601;28;20121;-42
2021/01/04 00:04:15;;;;;;;1.23;1.00;;;12.20;79.00;;;;;;5010621;28;20050;-43
2021/01/04 00:06:48;;;;;;;1.20;1.00;;;12.20;79.00;;;;;;5022180;28;20936;-43
2021/01/04 00:09:25;;;;;;;0.82;0.82;;;12.20;79.00;;;;;;5021744;28;20127;-43
2021/01/04 00:11:57;;;;;;;1.23;0.93;;;12.20;79.20;;;;;;5022110;28;20030;-43
2021/01/04 00:14:43;;;;;;;1.05;0.95;;;12.20;79.00;;;;;;5022010;28;20116;-43
2021/01/04 00:17:41;;;;;;;0.85;0.85;;;12.20;79.00;;;;;;5022132;28;20042;-43
2021/01/04 00:20:10;;;;;;;0.85;0.85;;;12.10;79.00;;;;;;5021502;28;20652;-42
2021/01/04 00:22:39;;;;;;;1.15;0.98;;;12.10;79.00;;;;;;5021631;28;20065;-43
2021/01/04 00:25:23;;;;;;;1.50;1.10;;;12.10;79.10;;;;;;5021603;28;20022;-43
2021/01/04 00:28:04;;;;;;;1.00;0.90;;;12.10;79.00;;;;;;5104673;28;20139;-42
2021/01/04 00:31:12;;;;;;;0.80;0.80;;;12.00;79.10;;;;;;5094439;28;20035;-43
2021/01/04 00:33:42;;;;;;;1.00;0.90;;;12.00;79.10;;;;;;5088190;28;20040;-43
2021/01/04 00:36:31;;;;;;;0.80;0.80;;;12.00;79.10;;;;;;5108596;28;20023;-42
2021/01/04 00:39:12;;;;;;;1.00;0.90;;;12.00;79.00;;;;;;5090551;28;20020;-42
2021/01/04 00:41:57;;;;;;;1.00;1.00;;;12.00;79.50;;;;;;5124391;28;20023;-42
2021/01/04 00:44:34;;;;;;;1.20;1.10;;;11.90;79.20;;;;;;5121705;28;20134;-43
2021/01/04 00:47:48;;;;;;;1.10;0.80;;;11.90;79.20;;;;;;5106066;28;20028;-44
2021/01/04 00:50:26;;;;;;;0.93;0.82;;;11.90;79.10;;;;;;5015420;28;20063;-43
2021/01/04 00:52:57;;;;;;;1.65;1.30;;;11.90;79.10;;;;;;5001547;28;20065;-42
2021/01/04 00:55:45;;;;;;;1.38;1.00;;;11.90;79.30;;;;;;4985105;28;20069;-42
2021/01/04 00:58:17;;;;;;;;;;;11.80;79.20;;;;;;5002031;28;20034;-43
2021/01/04 01:00:58;;;;;;;1.23;1.00;;;11.80;79.10;;;;;;5014157;28;19932;-42
2021/01/04 01:03:58;;;;;;;1.15;1.05;;;11.80;79.20;;;;;;5020702;28;20065;-42
2021/01/04 01:06:26;;;;;;;1.17;1.00;;;11.80;79.20;;;;;;5020834;28;20037;-43
2021/01/04 01:08:54;;;;;;;1.27;1.10;;;11.80;79.00;;;;;;5020963;28;20026;-43
2021/01/04 01:11:43;;;;;;;1.20;1.10;;;11.70;79.00;;;;;;5020774;28;20038;-43
2021/01/04 01:14:21;;;;;;;0.93;0.93;;;11.70;79.00;;;;;;5020514;28;20038;-43
2021/01/04 01:17:22;;;;;;;0.90;0.90;;;11.70;79.00;;;;;;5020681;28;20030;-42
2021/01/04 01:19:55;;;;;;;1.88;1.58;;;11.70;79.70;;;;;;5020549;28;20668;-43
2021/01/04 01:22:30;;;;;;;1.27;1.00;;;11.70;79.10;;;;;;5020305;28;20073;-47
2021/01/04 01:25:05;;;;;;;1.33;0.90;;;11.70;79.20;;;;;;5039423;28;20039;-43
2021/01/04 01:27:59;;;;;;;1.02;0.93;;;11.70;79.20;;;;;;5103217;28;20036;-43
2021/01/04 01:31:07;;;;;;;1.45;1.10;;;11.60;79.00;;;;;;5081630;28;20030;-42
2021/01/04 01:34:10;;;;;;;1.10;1.00;;;11.60;79.10;;;;;;5108167;28;20020;-43
2021/01/04 01:36:56;;;;;;;1.13;1.02;;;11.60;79.10;;;;;;5115277;28;20060;-43
2021/01/04 01:39:44;;;;;;;1.40;0.93;;;11.60;79.20;;;;;;5085679;28;20084;-42
2021/01/04 01:42:32;;;;;;;1.10;1.00;;;11.50;79.00;;;;;;5118021;28;20771;-42
2021/01/04 01:45:16;;;;;;;1.20;1.10;;;11.50;79.10;;;;;;5123481;28;20053;-43
2021/01/04 01:47:47;;;;;;;1.20;1.10;;;11.50;79.20;;;;;;5095182;28;20031;-43
2021/01/04 01:50:40;;;;;;;1.17;1.00;;;11.50;79.10;;;;;;5109887;28;20024;-42
2021/01/04 01:53:12;;;;;;;1.60;1.05;;;11.50;79.20;;;;;;5104736;28;20055;-42
2021/01/04 01:55:53;;;;;;;1.30;1.20;;;11.50;79.20;;;;;;5103315;28;20127;-42
2021/01/04 01:58:41;;;;;;;1.27;1.10;;;11.40;79.10;;;;;;5102860;28;20046;-42
2021/01/04 02:01:28;;;;;;;1.42;1.20;;;11.40;79.00;;;;;;5102278;28;20031;-42
2021/01/04 02:04:05;;;;;;;1.20;1.02;;;11.40;79.10;;;;;;5084522;28;20040;-42
2021/01/04 02:06:53;;;;;;;1.92;1.20;;;11.40;79.30;;;;;;5102634;28;20039;-42
2021/01/04 02:09:34;;;;;;;0.95;0.95;;;11.40;79.10;;;;;;5102542;28;20024;-42
2021/01/04 02:12:09;;;;;;;1.30;1.20;;;11.30;79.00;;;;;;5068406;28;20484;-42
2021/01/04 02:15:05;;;;;;;1.20;1.10;;;11.30;79.00;;;;;;5069402;28;20054;-42
2021/01/04 02:18:00;;;;;;;0.93;0.90;;;11.30;79.20;;;;;;5084644;28;20044;-42
2021/01/04 02:20:50;;;;;;;1.00;0.90;;;11.30;79.20;;;;;;5099058;28;20067;-42
2021/01/04 02:23:32;;;;;;;1.10;1.00;;;11.30;79.00;;;;;;5104517;28;20047;-42
2021/01/04 02:26:01;;;;;;;1.10;1.00;;;11.20;79.20;;;;;;5104437;28;20019;-42
2021/01/04 02:28:29;;;;;;;1.42;1.33;;;11.20;79.20;;;;;;5088335;28;20023;-42
2021/01/04 02:30:55;;;;;;;1.60;1.08;;;11.20;79.20;;;;;;5089479;28;20476;-42
2021/01/04 02:33:21;;;;;;;0.98;0.88;;;11.20;79.20;;;;;;5084207;28;20111;-42
2021/01/04 02:35:48;;;;;;;1.05;0.95;;;11.20;79.20;;;;;;5084138;28;20027;-42
2021/01/04 02:38:23;;;;;;;1.53;1.43;;;11.20;79.20;;;;;;5067717;28;20028;-42
2021/01/04 02:40:49;;;;;;;1.67;1.23;;;11.20;79.20;;;;;;5071840;28;20303;-42
2021/01/04 02:43:16;;;;;;;1.60;1.17;;;11.10;79.20;;;;;;5092068;28;20035;-42
2021/01/04 02:45:42;;;;;;;1.30;1.20;;;11.10;79.20;;;;;;5104421;28;20027;-42
2021/01/04 02:48:32;;;;;;;1.25;1.15;;;11.10;79.30;;;;;;5102251;28;20028;-42
2021/01/04 02:51:13;;;;;;;1.52;1.00;;;11.10;79.30;;;;;;5104806;28;20027;-42
2021/01/04 02:53:53;;;;;;;1.73;1.17;;;11.10;79.30;;;;;;5122573;28;20032;-42
2021/01/04 02:56:45;;;;;;;1.55;1.20;;;11.00;79.20;;;;;;5106080;28;20076;-42
2021/01/04 02:59:20;;;;;;;1.48;1.30;;;11.00;79.20;;;;;;5104065;28;20015;-42
2021/01/04 03:01:54;;;;;;;1.48;1.33;;;11.00;79.40;;;;;;5083551;28;20028;-42
2021/01/04 03:04:21;;;;;;;1.38;1.20;;;11.00;79.30;;;;;;5084737;28;20032;-42
2021/01/04 03:06:56;;;;;;;1.80;1.50;;;11.00;79.30;;;;;;5084088;28;20024;-43
2021/01/04 03:09:26;;;;;;;1.30;1.20;;;10.90;79.30;;;;;;5102061;28;20043;-42
2021/01/04 03:11:53;;;;;;;2.88;1.48;;;10.90;79.30;;;;;;5103708;28;20031;-42
2021/01/04 03:14:37;;;;;;;1.00;0.80;;;10.90;79.30;;;;;;5087807;28;20052;-43
2021/01/04 03:17:32;;;;;;;2.22;1.20;;;10.90;79.30;;;;;;5105754;28;20027;-42
2021/01/04 03:19:59;;;;;;;1.15;1.05;;;10.90;79.30;;;;;;5101359;28;20051;-42
2021/01/04 03:22:26;;;;;;;1.55;1.25;;;10.90;79.30;;;;;;5107606;28;20039;-42
2021/01/04 03:24:52;;;;;;;1.40;1.30;;;10.80;79.30;;;;;;5107678;28;20027;-42
2021/01/04 03:27:22;;;;;;;1.40;1.27;;;10.80;79.30;;;;;;5126170;28;20052;-42
2021/01/04 03:29:48;;;;;;;1.98;1.27;;;10.80;79.30;;;;;;5102130;28;20024;-42
2021/01/04 03:32:14;;;;;;;1.85;1.42;;;10.80;79.40;;;;;;5105396;28;20027;-42
2021/01/04 03:34:40;;;;;;;1.55;1.45;;;10.80;79.40;;;;;;5105482;28;20090;-42
2021/01/04 03:37:07;;;;;;;2.67;1.58;;;10.70;79.40;;;;;;5105308;28;20042;-42
2021/01/04 03:39:33;;;;;;;2.05;1.10;;;10.80;79.40;;;;;;5105321;28;20034;-42
2021/01/04 03:41:59;;;;;;;2.25;1.38;;;10.70;79.40;;;;;;5117089;28;20075;-43
2021/01/04 03:44:26;;;;;;;2.40;1.50;;;10.70;79.30;;;;;;5107766;28;20031;-42
2021/01/04 03:46:53;;;;;;;1.90;1.40;;;10.70;79.40;;;;;;5122644;28;20291;-42
2021/01/04 03:49:19;;;;;;;1.38;1.27;;;10.70;79.50;;;;;;5117087;28;20126;-42
2021/01/04 03:51:56;;;;;;;1.53;1.20;;;10.70;79.50;;;;;;5086947;28;20540;-42
2021/01/04 03:54:22;;;;;;;3.00;1.50;;;10.70;79.50;;;;;;5104837;28;20039;-42
2021/01/04 03:56:48;;;;;;;1.92;1.10;;;10.60;79.40;;;;;;5105330;28;20020;-42
2021/01/04 03:59:15;;;;;;;4.38;1.52;;;10.60;79.40;;;;;;5105151;28;20570;-42
2021/01/04 04:01:47;;;;;;;2.95;1.55;;;10.60;79.50;;;;;;5104905;28;20058;-42
2021/01/04 04:04:13;;;;;;;2.40;1.52;;;10.60;79.60;;;;;;5104901;28;20476;-42
2021/01/04 04:06:40;;;;;;;1.55;1.27;;;10.50;79.50;;;;;;5104818;28;20032;-42
2021/01/04 04:09:06;;;;;;;1.88;1.60;;;10.60;79.60;;;;;;5105101;28;20070;-42
2021/01/04 04:11:32;;;;;;;1.80;1.40;;;10.50;79.50;;;;;;5104602;28;20035;-42
2021/01/04 04:13:58;;;;;;;1.88;1.73;;;10.60;79.60;;;;;;5104851;28;20031;-42
2021/01/04 04:16:24;;;;;;;1.75;1.40;;;10.50;79.50;;;;;;5104740;28;20054;-42
2021/01/04 04:18:51;;;;;;;1.73;1.63;;;10.50;79.60;;;;;;5106098;28;20082;-42
2021/01/04 04:21:17;;;;;;;2.88;1.75;;;10.50;79.60;;;;;;5125105;28;20034;-42
2021/01/04 04:23:43;;;;;;;4.28;1.60;;;10.50;79.60;;;;;;5124500;28;20039;-42
2021/01/04 04:26:16;;;;;;;2.63;1.50;;;10.50;79.50;;;;;;5124984;28;20104;-42
2021/01/04 04:28:43;;;;;;;1.95;1.60;;;10.40;79.50;;;;;;5106979;28;20027;-42
2021/01/04 04:31:10;;;;;;;2.65;1.95;;;10.40;79.50;;;;;;5107931;28;20127;-43
2021/01/04 04:33:36;;;;;;;2.08;1.45;;;10.40;79.60;;;;;;5104253;28;20043;-42
2021/01/04 04:36:03;;;;;;;2.00;1.65;;;10.40;79.60;;;;;;5104557;28;20107;-42
2021/01/04 04:38:29;;;;;;;1.92;1.38;;;10.40;79.60;;;;;;5104532;28;20024;-42
2021/01/04 04:40:55;;;;;;;3.05;1.92;;;10.30;79.50;;;;;;5104267;28;20166;-43
2021/01/04 04:43:41;;;;;;;2.75;2.05;;;10.30;79.70;;;;;;5103841;28;20040;-42
2021/01/04 04:46:11;;;;;;;3.42;1.90;;;10.30;79.60;;;;;;5123544;28;20015;-42
2021/01/04 04:48:57;;;;;;;2.47;1.80;;;10.30;79.60;;;;;;5085414;28;20051;-42
2021/01/04 04:51:47;;;;;;;1.83;1.73;;;10.30;79.70;;;;;;5106079;28;20106;-42
2021/01/04 04:54:25;;;;;;;3.72;2.05;;;10.30;79.70;;;;;;5090853;28;20027;-42
2021/01/04 04:57:14;;;;;;;2.67;1.70;;;10.30;79.70;;;;;;5124582;28;20027;-42
2021/01/04 05:00:25;;;;;;;2.30;1.73;;;10.30;79.80;;;;;;5101544;28;20146;-42
2021/01/04 05:03:08;;;;;;;2.50;2.00;;;10.30;79.70;;;;;;5103752;28;20032;-42
2021/01/04 05:05:45;;;;;;;2.83;2.10;;;10.20;79.70;;;;;;5085616;28;20016;-42
2021/01/04 05:08:45;;;;;;;2.40;1.85;;;10.20;79.60;;;;;;5103824;28;20031;-42
2021/01/04 05:11:11;;;;;;;2.50;1.92;;;10.20;79.70;;;;;;5106662;28;20030;-42
2021/01/04 05:13:39;;;;;;;3.03;2.10;;;10.20;79.80;;;;;;5094272;28;20020;-43
2021/01/04 05:16:17;;;;;;;2.50;2.10;;;10.10;79.60;;;;;;5085475;28;20024;-42
2021/01/04 05:19:13;;;;;;;2.40;2.20;;;10.10;79.80;;;;;;5085881;28;20044;-42
2021/01/04 05:22:20;;;;;;;3.10;2.10;;;10.10;79.70;;;;;;5123877;28;20051;-42
2021/01/04 05:24:53;;;;;;;4.88;2.13;;;10.10;79.70;;;;;;5123637;28;20088;-42
2021/01/04 05:27:39;;;;;;;2.67;2.22;;;10.10;79.70;;;;;;5105815;28;20028;-42
2021/01/04 05:30:28;;;;;;;2.80;2.30;;;10.10;79.80;;;;;;5097608;28;20707;-42
2021/01/04 05:33:10;;;;;;;3.17;2.30;;;10.10;79.80;;;;;;5087612;28;20024;-42
2021/01/04 05:35:36;;;;;;;4.70;2.50;;;10.10;79.90;;;;;;5102389;28;20036;-42
2021/01/04 05:38:07;;;;;;;3.13;2.47;;;10.00;79.70;;;;;;5084867;28;20441;-42
2021/01/04 05:40:58;;;;;;;3.30;2.40;;;10.00;79.70;;;;;;5087650;28;20039;-42
2021/01/04 05:44:02;;;;;;;3.72;2.50;;;10.00;79.80;;;;;;5086918;28;20041;-41
2021/01/04 05:46:36;;;;;;;3.22;2.38;;;9.90;79.80;;;;;;5103208;28;20049;-42
2021/01/04 05:49:32;;;;;;;4.40;2.45;;;10.00;79.80;;;;;;5074481;28;20020;-42
2021/01/04 05:51:58;;;;;;;3.92;2.67;;;9.90;79.90;;;;;;5105918;28;20020;-42
2021/01/04 05:54:42;;;;;;;2.58;2.33;;;9.90;79.90;;;;;;5102938;28;20016;-42
2021/01/04 05:57:16;;;;;;;3.42;2.33;;;9.90;79.90;;;;;;5103175;28;20058;-41
2021/01/04 05:59:49;;;;;;;4.22;2.60;;;9.90;79.90;;;;;;5084750;28;20046;-41
2021/01/04 06:02:34;;;;;;;2.53;2.33;;;9.90;79.90;;;;;;5102797;28;20075;-42
2021/01/04 06:05:14;;;;;;;5.65;2.70;;;9.80;79.90;;;;;;5102655;28;20529;-42
2021/01/04 06:07:42;;;;;;;4.15;2.70;;;9.80;79.90;;;;;;5102785;28;20032;-42
2021/01/04 06:10:17;;;;;;;5.32;2.28;;;9.80;79.90;;;;;;5102802;28;20055;-42
2021/01/04 06:12:45;;;;;;;3.40;2.25;;;9.80;79.90;;;;;;5102805;28;20084;-42
2021/01/04 06:15:12;;;;;;;4.32;2.38;;;9.80;79.90;;;;;;5068232;28;20652;-42
2021/01/04 06:17:40;;;;;;;7.03;2.80;;;9.80;79.90;;;;;;5084557;28;20087;-41
2021/01/04 06:20:38;;;;;;;3.80;2.50;;;9.80;80.00;;;;;;5076372;28;20124;-42
2021/01/04 06:23:21;;;;;;;4.05;2.55;;;9.70;79.80;;;;;;5061859;28;20066;-41
2021/01/04 06:25:56;;;;;;;3.10;2.38;;;9.70;80.00;;;;;;5068121;28;20123;-41
2021/01/04 06:28:22;;;;;;;3.30;2.60;;;9.70;80.00;;;;;;5102585;28;20046;-42
2021/01/04 06:31:07;;;;;;;4.22;2.80;;;9.70;79.90;;;;;;5116943;28;20053;-41
2021/01/04 06:33:33;;;;;;;2.95;2.20;;;9.70;80.00;;;;;;5104586;28;20457;-41
2021/01/04 06:36:08;;;;;;;4.28;2.28;;;9.70;79.90;;;;;;5084759;28;20105;-42
2021/01/04 06:38:38;;;;;;;2.72;2.08;;;9.70;80.00;;;;;;5084524;28;20043;-42
2021/01/04 06:41:31;;;;;;;6.68;2.35;;;9.70;80.00;;;;;;5067579;28;20027;-41
2021/01/04 06:44:07;;;;;;;2.88;2.33;;;9.60;80.00;;;;;;5102646;28;20060;-42
2021/01/04 06:46:36;;;;;;;3.95;2.80;;;9.60;80.00;;;;;;5088698;28;20092;-42
2021/01/04 06:49:19;;;;;;;4.95;2.90;;;9.60;80.10;;;;;;5118519;28;20073;-42
2021/01/04 06:52:09;;;;;;;2.63;2.38;;;9.60;80.10;;;;;;5108572;28;20027;-41
2021/01/04 06:55:03;;;;;;;3.25;2.47;;;9.50;80.00;;;;;;5091737;28;20674;-42
2021/01/04 06:57:40;;;;;;;6.05;2.42;;;9.50;80.00;;;;;;5111779;28;20034;-41
2021/01/04 07:00:18;;;;;;;2.47;1.93;;;9.50;80.10;;;;;;5118727;28;20028;-41
2021/01/04 07:02:57;;;;;;;2.80;2.08;;;9.50;80.10;;;;;;5106243;28;20028;-42
2021/01/04 07:05:52;;;;;;;2.83;2.30;;;9.50;80.10;;;;;;5087882;28;20032;-41
2021/01/04 07:08:34;;;;;;;2.53;2.33;;;9.50;80.10;;;;;;5090791;28;20028;-42
2021/01/04 07:11:04;;;;;;;3.97;2.97;;;9.40;80.00;;;;;;5089467;28;20024;-42
2021/01/04 07:14:20;;;;;;;3.42;2.40;;;9.40;80.10;;;;;;5106328;28;20036;-42
2021/01/04 07:17:20;;;;;;;4.80;2.72;;;9.40;80.10;;;;;;5006477;28;20026;-41
2021/01/04 07:20:26;;;;;;;3.05;2.38;;;9.40;80.20;;;;;;5032405;28;20092;-42
2021/01/04 07:23:23;;;;;;;3.88;2.50;;;9.40;80.20;;;;;;5026401;28;20057;-42
2021/01/04 07:26:02;;;;;;;2.83;2.03;;;9.40;80.20;;;;;;5026330;28;20026;-41
2021/01/04 07:28:43;;;;;;;3.20;2.35;;;9.40;80.20;;;;;;5026536;28;20097;-41
2021/01/04 07:31:42;;;;;;;3.30;2.50;;;9.30;80.10;;;;;;5043115;28;20044;-41
2021/01/04 07:34:26;;;;;;;4.88;2.65;;;9.30;80.10;;;;;;5039071;28;20531;-41
2021/01/04 07:37:20;;;;;;;3.20;2.58;;;9.30;80.10;;;;;;5025980;28;20107;-42
2021/01/04 07:39:49;;;;;;;3.47;2.40;;;9.30;80.20;;;;;;5042664;28;20659;-42
2021/01/04 07:42:39;;;;;;;2.53;2.28;;;9.30;81.00;;;;;;5041336;28;20061;-42
2021/01/04 07:45:23;;;;;;;4.22;2.47;;;9.30;80.30;;;;;;5039990;28;20116;-42
2021/01/04 07:48:00;;;;;;;3.10;2.42;;;9.20;80.20;;;;;;5058008;28;20267;-41
2021/01/04 07:50:35;;;;;;;3.22;2.58;;;9.20;80.20;;;;;;5064130;28;20029;-42
2021/01/04 07:53:24;;;;;;;3.63;2.80;;;9.20;80.20;;;;;;5047159;28;20029;-43
2021/01/04 07:56:08;;;;;;;;;;;9.20;80.30;;;;;;5064095;28;20025;-42
2021/01/04 07:58:57;;;;;;;3.25;2.40;;;9.10;80.20;;;;;;5064246;28;19909;-42
2021/01/04 08:01:35;;;;;;;4.43;2.50;;;9.10;80.20;;;;;;5082319;28;20032;-41
2021/01/04 08:04:13;;;;;;;3.35;2.65;;;9.10;80.30;;;;;;5085108;28;20082;-42
2021/01/04 08:06:58;;;;;;;3.42;2.63;;;9.10;80.30;;;;;;5084767;28;20075;-42
2021/01/04 08:09:49;;;;;;;3.05;2.35;;;9.10;80.30;;;;;;5085133;28;20092;-41
2021/01/04 08:12:43;;;;;;;2.70;2.50;;;9.10;80.30;;;;;;5083331;28;20401;-42
2021/01/04 08:15:31;;;;;;;5.35;2.85;;;9.00;80.30;;;;;;5083556;28;20028;-41
2021/01/04 08:18:17;;;;;;;3.25;2.63;;;9.00;80.30;;;;;;5084859;28;20096;-42
2021/01/04 08:21:23;;;;;;;6.68;2.58;;;9.00;80.30;;;;;;5060657;28;20044;-46
2021/01/04 08:24:18;;;;;;;3.35;2.63;;;9.00;80.30;;;;;;5077541;28;20029;-42
2021/01/04 08:27:07;;;;;;;3.53;2.60;;;9.00;80.30;;;;;;5059632;28;20040;-42
2021/01/04 08:29:48;;;;;;;4.50;2.58;;;9.00;80.40;;;;;;5081283;28;20042;-41
2021/01/04 08:32:32;;;;;;;3.60;2.50;;;9.00;80.40;;;;;;5084488;28;20029;-42
2021/01/04 08:35:08;;;;;;;2.75;2.40;;;8.90;80.30;;;;;;5083231;28;20025;-42
2021/01/04 08:37:37;;;;;;;4.15;2.60;;;8.90;80.30;;;;;;5084309;28;20851;-42
2021/01/04 08:40:18;;;;;;;3.08;2.50;;;8.90;80.30;;;;;;5084343;28;20025;-41
2021/01/04 08:42:45;;;;;;;2.67;2.30;;;8.90;80.30;;;;;;5084022;28;20172;-41
2021/01/04 08:45:13;;;;;;;3.67;2.47;;;8.90;80.30;;;;;;5084303;28;20035;-42
2021/01/04 08:47:46;;;;;;;4.03;2.55;;;8.90;80.30;;;;;;5066244;28;20061;-42
2021/01/04 08:50:34;;;;;;;5.25;2.45;;;8.90;80.30;;;;;;5066993;28;20417;-41
2021/01/04 08:53:16;;;;;;;6.20;2.50;;;8.80;80.40;;;;;;5063736;28;20037;-42
2021/01/04 08:55:43;;;;;;;3.42;2.58;;;8.80;80.40;;;;;;5062598;28;20021;-41
2021/01/04 08:58:21;;;;;;;3.70;2.58;;;8.80;80.40;;;;;;5063936;28;20036;-41
2021/01/04 09:01:27;;;;;;;3.95;2.58;;;8.80;80.50;;;;;;5077758;28;20103;-41
2021/01/04 09:04:07;;;;;;;3.78;2.53;;;8.80;80.50;;;;;;5078784;28;20051;-42
2021/01/04 09:06:43;;;;;;;3.22;2.60;;;8.70;80.40;;;;;;5082309;28;20060;-41
2021/01/04 09:09:20;;;;;;;2.97;2.30;;;8.70;80.50;;;;;;5065001;28;20020;-42
2021/01/04 09:12:07;;;;;;;2.70;2.50;;;8.70;80.50;;;;;;5066421;28;20051;-42
2021/01/04 09:14:38;;;;;;;2.97;2.40;;;8.70;80.50;;;;;;5083883;28;20068;-41
2021/01/04 09:17:19;;;;;;;4.10;2.72;;;8.70;80.50;;;;;;5082238;28;20040;-41
2021/01/04 09:19:46;;;;;;;3.08;2.42;;;8.70;80.50;;;;;;5106668;28;20128;-41
2021/01/04 09:22:13;;;;;;;3.45;2.53;;;8.70;80.60;;;;;;5071921;28;20043;-41
2021/01/04 09:24:42;;;;;;;;;;;8.70;80.50;;;;;;5089746;28;20024;-41
2021/01/04 09:27:32;;;;;;;2.95;2.47;;;8.60;80.50;;;;;;5124055;28;19908;-41
2021/01/04 09:30:00;;;;;;;5.35;2.40;;;8.60;80.50;;;;;;5083851;28;20054;-42
2021/01/04 09:32:37;;;;;;;2.67;2.45;;;8.60;80.50;;;;;;5103347;28;20141;-42
2021/01/04 09:35:30;;;;;;;3.60;2.70;;;8.60;80.60;;;;;;5106960;28;20538;-42
2021/01/04 09:38:04;;;;;;;4.50;3.03;;;8.60;80.60;;;;;;5098892;28;20036;-41
2021/01/04 09:40:30;;;;;;;2.58;2.38;;;8.50;80.60;;;;;;5091866;28;20023;-42
2021/01/04 09:43:11;;;;;;;2.97;2.30;;;8.60;80.60;;;;;;5087968;28;20103;-41
2021/01/04 09:45:38;;;;;;;3.58;2.60;;;8.50;80.60;;;;;;5105555;28;20020;-41
2021/01/04 09:48:06;;;;;;;3.35;2.75;;;8.50;80.60;;;;;;5123647;28;20024;-41
2021/01/04 09:50:44;;;;;;;3.65;2.50;;;8.50;80.50;;;;;;5089756;28;20031;-41
2021/01/04 09:53:21;;;;;;;;;;;8.50;80.60;;;;;;5085657;28;20043;-41
2021/01/04 09:55:47;;;;;;;3.85;2.60;;;8.50;80.70;;;;;;5085019;28;19908;-42
2021/01/04 09:58:16;;;;;;;3.45;2.85;;;8.50;80.70;;;;;;5103202;28;20023;-41
2021/01/04 10:00:45;;;;;;;2.75;2.28;;;8.50;80.70;;;;;;5068650;28;20020;-42
2021/01/04 10:03:17;;;;;;;3.30;2.58;;;8.50;80.60;;;;;;5084946;28;20096;-42
2021/01/04 10:05:45;;;;;;;3.17;2.33;;;8.40;80.60;;;;;;5084997;28;20028;-42
2021/01/04 10:08:27;;;;;;;3.70;2.58;;;8.40;80.60;;;;;;5102241;28;20040;-42
2021/01/04 10:11:04;;;;;;;2.88;2.40;;;8.40;80.70;;;;;;5084298;28;20032;-42
2021/01/04 10:13:32;;;;;;;3.08;2.13;;;8.40;80.70;;;;;;5102741;28;20028;-41
2021/01/04 10:16:00;;;;;;;2.67;2.40;;;8.40;80.70;;;;;;5102816;28;20080;-42
2021/01/04 10:18:50;;;;;;;4.28;2.20;;;8.40;80.70;;;;;;5068081;28;20055;-41
2021/01/04 10:21:30;;;;;;;2.47;2.15;;;8.40;80.70;;;;;;5102573;28;20028;-42
2021/01/04 10:24:03;;;;;;;4.20;2.58;;;8.30;80.70;;;;;;5102524;28;20039;-42
2021/01/04 10:26:36;;;;;;;3.63;2.30;;;8.30;80.70;;;;;;5084807;28;20020;-42
2021/01/04 10:29:05;;;;;;;2.78;2.05;;;8.30;80.70;;;;;;5102683;28;20055;-41
2021/01/04 10:31:33;;;;;;;2.85;2.33;;;8.30;80.70;;;;;;5101123;28;20021;-42
2021/01/04 10:34:10;;;;;;;3.53;2.38;;;8.30;80.70;;;;;;5102649;28;20110;-42
2021/01/04 10:36:37;;;;;;;3.00;2.53;;;8.30;80.80;;;;;;5110761;28;20049;-42
2021/01/04 10:39:14;;;;;;;3.03;2.22;;;8.20;80.70;;;;;;5104758;28;20305;-41
2021/01/04 10:41:40;;;;;;;2.42;2.22;;;8.20;80.70;;;;;;5109708;28;20024;-41
2021/01/04 10:44:24;;;;;;;2.88;2.50;;;8.20;80.70;;;;;;5122771;28;20035;-41
2021/01/04 10:46:56;;;;;;;3.90;2.25;;;8.20;80.70;;;;;;5088387;28;20034;-41
2021/01/04 10:49:30;;;;;;;2.53;2.33;;;8.20;80.70;;;;;;5116662;28;20028;-41
2021/01/04 10:51:56;;;;;;;3.42;2.50;;;8.20;80.70;;;;;;5094751;28;20035;-41
2021/01/04 10:54:36;;;;;;;3.75;2.13;;;8.20;80.70;;;;;;5122641;28;20058;-41
2021/01/04 10:57:06;;;;;;;2.85;2.10;;;8.20;80.70;;;;;;5122648;28;20028;-41
2021/01/04 10:59:38;;;;;;;4.53;2.30;;;8.10;80.70;;;;;;5084209;28;20027;-41
2021/01/04 11:02:04;;;;;;;3.35;2.30;;;8.10;80.80;;;;;;5068159;28;20508;-41
2021/01/04 11:04:30;;;;;;;2.60;2.40;;;8.10;80.80;;;;;;5101995;28;20099;-41
2021/01/04 11:07:06;;;;;;;2.70;2.20;;;8.10;80.70;;;;;;5084405;28;20035;-41
2021/01/04 11:09:35;;;;;;;2.63;2.20;;;8.10;80.70;;;;;;5102337;28;20025;-48
2021/01/04 11:12:21;;;;;;;3.08;2.30;;;8.10;80.80;;;;;;5102334;28;20050;-41
2021/01/04 11:14:58;;;;;;;3.50;2.30;;;8.10;80.80;;;;;;5084040;28;20027;-41
2021/01/04 11:17:27;;;;;;;2.80;2.38;;;8.00;80.80;;;;;;5102277;28;20535;-41
2021/01/04 11:19:53;;;;;;;2.92;2.28;;;8.00;80.80;;;;;;5112450;28;20052;-41
2021/01/04 11:22:22;;;;;;;4.65;2.25;;;8.00;80.90;;;;;;5122603;28;20043;-41
2021/01/04 11:24:48;;;;;;;3.22;2.50;;;8.00;80.80;;;;;;5122316;28;20016;-41
2021/01/04 11:27:15;;;;;;;2.83;2.13;;;8.00;80.80;;;;;;5122461;28;20027;-41
2021/01/04 11:29:42;;;;;;;3.45;2.33;;;8.00;80.80;;;;;;5117827;28;20046;-41
2021/01/04 11:32:08;;;;;;;3.67;1.75;;;8.00;80.90;;;;;;5102704;28;20058;-41
2021/01/04 11:34:34;;;;;;;2.90;2.50;;;7.90;80.80;;;;;;5105457;28;20024;-41
2021/01/04 11:37:01;;;;;;;3.90;2.43;;;7.90;80.80;;;;;;5105682;28;20043;-41
2021/01/04 11:39:27;;;;;;;2.70;2.22;;;7.90;80.80;;;;;;5105932;28;20028;-41
2021/01/04 11:41:53;;;;;;;4.07;2.40;;;7.90;80.80;;;;;;5115760;28;20027;-41
2021/01/04 11:44:19;;;;;;;3.75;2.20;;;7.90;80.90;;;;;;5108595;28;20032;-42
2021/01/04 11:46:45;;;;;;;2.35;2.13;;;7.90;80.90;;;;;;5123072;28;20028;-41
2021/01/04 11:49:12;;;;;;;3.35;2.17;;;7.90;80.90;;;;;;5121256;28;20063;-42
2021/01/04 11:51:38;;;;;;;2.17;1.98;;;7.90;80.90;;;;;;5090109;28;20048;-41
2021/01/04 11:54:04;;;;;;;4.47;2.30;;;7.80;80.90;;;;;;5105142;28;20035;-41
2021/01/04 11:56:31;;;;;;;4.15;2.28;;;7.80;80.90;;;;;;5105443;28;20092;-41
2021/01/04 11:58:57;;;;;;;3.20;2.17;;;7.80;80.90;;;;;;5105319;28;20095;-41
2021/01/04 12:01:25;;;;;;;2.77;2.03;;;7.80;81.00;;;;;;5105482;28;20035;-41
2021/01/04 12:03:51;;;;;;;2.20;1.92;;;7.80;80.90;;;;;;5105141;28;20844;-41
2021/01/04 12:06:18;;;;;;;3.15;2.20;;;7.80;80.90;;;;;;5086719;28;20091;-41
2021/01/04 12:08:44;;;;;;;2.70;2.20;;;7.80;81.00;;;;;;5105112;28;20032;-41
2021/01/04 12:11:10;;;;;;;2.40;2.17;;;7.80;81.00;;;;;;5104932;28;20093;-41
2021/01/04 12:13:36;;;;;;;6.50;2.20;;;7.80;81.00;;;;;;5104803;28;20040;-41
2021/01/04 12:16:03;;;;;;;2.97;1.98;;;7.70;80.90;;;;;;5104807;28;20032;-41
2021/01/04 12:18:29;;;;;;;3.40;2.00;;;7.70;80.90;;;;;;5104827;28;20040;-41
2021/01/04 12:20:55;;;;;;;2.63;2.20;;;7.70;81.00;;;;;;5124135;28;20052;-41
2021/01/04 12:23:22;;;;;;;2.78;2.13;;;7.70;81.00;;;;;;5125182;28;20047;-41
2021/01/04 12:25:48;;;;;;;4.25;2.22;;;7.70;81.00;;;;;;5124940;28;20019;-41
2021/01/04 12:28:14;;;;;;;2.45;1.90;;;7.70;81.00;;;;;;5107000;28;20050;-42
2021/01/04 12:30:40;;;;;;;2.60;2.22;;;7.70;81.00;;;;;;5093854;28;20028;-41
2021/01/04 12:33:06;;;;;;;3.47;1.95;;;7.70;81.00;;;;;;5104645;28;20059;-41
2021/01/04 12:35:34;;;;;;;2.63;2.20;;;7.60;81.00;;;;;;5104423;28;20020;-41
2021/01/04 12:38:00;;;;;;;4.07;2.28;;;7.60;81.00;;;;;;5104536;28;20111;-41
2021/01/04 12:40:29;;;;;;;4.30;2.33;;;7.60;81.00;;;;;;5110158;28;20169;-41
2021/01/04 12:42:57;;;;;;;3.22;2.03;;;7.60;81.00;;;;;;5069842;28;20044;-41
2021/01/04 12:45:26;;;;;;;2.08;1.83;;;7.60;81.00;;;;;;5104207;28;20030;-41
2021/01/04 12:47:53;;;;;;;2.70;2.28;;;7.60;81.00;;;;;;5104334;28;20030;-41
2021/01/04 12:50:19;;;;;;;2.35;2.08;;;7.60;81.00;;;;;;5106826;28;20028;-41
2021/01/04 12:52:45;;;;;;;3.10;2.20;;;7.60;81.10;;;;;;5104282;28;20024;-41
2021/01/04 12:55:12;;;;;;;2.40;2.20;;;7.60;81.10;;;;;;5104013;28;20020;-41
2021/01/04 12:57:38;;;;;;;2.83;2.30;;;7.50;81.00;;;;;;5104110;28;20148;-41
2021/01/04 13:00:06;;;;;;;2.85;1.92;;;7.50;81.10;;;;;;5104218;28;20264;-41
2021/01/04 13:02:32;;;;;;;3.80;2.08;;;7.50;81.10;;;;;;5104149;28;20400;-41
2021/01/04 13:04:58;;;;;;;2.58;1.90;;;7.50;81.10;;;;;;5085665;28;20031;-42
2021/01/04 13:07:25;;;;;;;2.42;1.83;;;7.50;81.10;;;;;;5103880;28;20116;-41
2021/01/04 13:09:52;;;;;;;3.67;2.10;;;7.50;81.10;;;;;;5103928;28;20028;-41
2021/01/04 13:12:18;;;;;;;3.60;2.00;;;7.50;81.10;;;;;;5103741;28;20036;-41
2021/01/04 13:14:48;;;;;;;2.77;1.83;;;7.40;81.00;;;;;;5103847;28;20028;-41
2021/01/04 13:17:14;;;;;;;4.07;1.88;;;7.50;81.20;;;;;;5103565;28;20032;-41
2021/01/04 13:19:41;;;;;;;2.22;2.00;;;7.40;81.10;;;;;;5112156;28;20051;-41
2021/01/04 13:22:07;;;;;;;3.08;2.13;;;7.40;81.10;;;;;;5124013;28;20050;-41
2021/01/04 13:24:34;;;;;;;2.22;1.98;;;7.40;81.10;;;;;;5124019;28;20023;-41
2021/01/04 13:27:00;;;;;;;2.53;1.92;;;7.40;81.20;;;;;;5123694;28;20036;-41
2021/01/04 13:29:30;;;;;;;2.67;2.03;;;7.40;81.20;;;;;;5121171;28;20035;-41
2021/01/04 13:32:07;;;;;;;3.17;2.10;;;7.40;81.20;;;;;;5103587;28;20035;-42
2021/01/04 13:34:33;;;;;;;2.20;1.67;;;7.40;81.10;;;;;;5103557;28;20032;-42
2021/01/04 13:36:59;;;;;;;2.10;1.77;;;7.40;81.20;;;;;;5118972;28;20091;-41
2021/01/04 13:39:26;;;;;;;2.40;2.20;;;7.30;81.10;;;;;;5105414;28;20444;-42